Time;durP1;ratioP1;P1;durP2;ratioP2;P2;SDS_P1;SDS_P2;PMS_P1;PMS_P2;Temp;Humidity;BMP_temperature;BMP_pressure;BME280_temperature;BME280_humidity;BME280_pressure;Samples;Min_cycle;Max_cycle;Signal;HPM_P1;HPM_P2
2021/11/12 00:13:09;;;;;;;21.02;13.90;;;;;;;9.17;100.00;100336.66;5034900;28;20037;-91
2021/11/12 00:15:41;;;;;;;21.42;13.50;;;;;;;9.15;100.00;100341.06;5034209;28;20052;-89
2021/11/12 00:18:08;;;;;;;24.73;13.65;;;;;;;9.16;100.00;100342.72;5035313;28;20092;-90
2021/11/12 00:20:35;;;;;;;20.75;14.15;;;;;;;9.15;100.00;100338.44;5035230;28;20074;-90
2021/11/12 00:23:02;;;;;;;19.33;13.18;;;;;;;9.12;100.00;100336.84;5035083;28;20041;-90
2021/11/12 00:25:28;;;;;;;23.35;13.57;;;;;;;9.11;100.00;100339.50;5035295;28;20041;-90
2021/11/12 00:27:55;;;;;;;19.95;13.07;;;;;;;9.01;100.00;100338.22;5035264;28;20049;-88
2021/11/12 00:35:51;;;;;;;19.00;12.30;;;;;;;9.04;100.00;100338.06;5033337;28;20080;-90
2021/11/12 00:38:22;;;;;;;17.40;10.98;;;;;;;8.90;100.00;100326.50;5035044;28;20411;-88
2021/11/12 00:43:38;;;;;;;17.38;11.25;;;;;;;8.92;100.00;100329.03;5034780;28;20096;-88
2021/11/12 00:46:13;;;;;;;15.23;10.27;;;;;;;8.94;100.00;100329.78;5034651;28;20080;-89
2021/11/12 00:48:55;;;;;;;15.95;11.45;;;;;;;8.97;100.00;100327.09;5035121;28;20045;-89
2021/11/12 00:51:28;;;;;;;13.73;10.40;;;;;;;8.99;100.00;100321.81;5034486;28;20029;-88
2021/11/12 00:56:30;;;;;;;13.50;9.32;;;;;;;8.83;100.00;100314.66;5034233;28;20056;-90
2021/11/12 00:58:59;;;;;;;17.65;9.45;;;;;;;8.88;100.00;100312.69;5034854;28;20164;-90
2021/11/12 01:01:29;;;;;;;15.95;10.05;;;;;;;8.84;100.00;100305.09;5034282;28;20049;-90
2021/11/12 01:03:57;;;;;;;14.10;9.35;;;;;;;8.80;100.00;100294.00;5034741;28;20048;-89
2021/11/12 01:06:24;;;;;;;14.05;8.65;;;;;;;8.82;100.00;100299.13;5035236;28;20066;-89
2021/11/12 01:08:50;;;;;;;13.82;9.95;;;;;;;8.75;100.00;100292.50;5033942;28;20092;-89
2021/11/12 01:11:19;;;;;;;12.35;8.35;;;;;;;8.81;100.00;100282.69;5034245;28;20087;-89
2021/11/12 01:13:49;;;;;;;13.60;8.52;;;;;;;8.85;100.00;100280.81;5033993;28;20107;-90
2021/11/12 01:16:19;;;;;;;16.83;9.52;;;;;;;8.88;100.00;100273.72;5033246;28;20084;-89
2021/11/12 01:18:46;;;;;;;14.15;9.55;;;;;;;8.75;100.00;100269.09;5034351;28;20107;-90
2021/11/12 01:21:16;;;;;;;13.70;7.88;;;;;;;8.64;100.00;100266.97;5034497;28;20036;-90
2021/11/12 01:23:45;;;;;;;16.83;8.63;;;;;;;8.62;100.00;100263.56;5035125;28;20072;-89
2021/11/12 01:26:13;;;;;;;14.63;9.25;;;;;;;8.66;100.00;100262.53;5052388;28;20041;-88
2021/11/12 01:28:41;;;;;;;17.92;7.97;;;;;;;8.71;100.00;100264.94;5046055;28;20046;-90
2021/11/12 01:31:10;;;;;;;11.75;8.65;;;;;;;8.77;100.00;100260.31;5033625;28;20045;-89
2021/11/12 01:33:38;;;;;;;11.82;7.55;;;;;;;8.91;100.00;100260.59;5033466;28;20064;-91
2021/11/12 01:38:43;;;;;;;10.85;7.70;;;;;;;9.03;100.00;100263.56;5034527;28;20049;-89
2021/11/12 01:41:10;;;;;;;10.15;7.38;;;;;;;8.87;100.00;100261.63;5034500;28;20369;-89
2021/11/12 01:43:43;;;;;;;11.23;7.78;;;;;;;8.95;100.00;100263.03;5034096;28;20053;-91
2021/11/12 01:59:10;;;;;;;12.13;8.68;;;;;;;9.18;100.00;100262.91;5034149;28;20487;-85
2021/11/12 02:01:38;;;;;;;10.95;8.05;;;;;;;9.19;100.00;100251.59;5033282;28;20087;-86
2021/11/12 02:04:09;;;;;;;10.00;7.63;;;;;;;9.38;100.00;100244.66;5033334;28;20041;-86
2021/11/12 02:06:38;;;;;;;10.82;7.70;;;;;;;9.45;100.00;100251.28;5032513;28;20380;-86
2021/11/12 02:09:20;;;;;;;11.13;7.68;;;;;;;9.34;100.00;100237.91;5033367;28;20045;-86
2021/11/12 02:11:59;;;;;;;14.10;8.57;;;;;;;9.25;100.00;100238.31;5032842;28;20045;-86
2021/11/12 02:14:26;;;;;;;10.38;8.27;;;;;;;9.24;100.00;100236.63;5033013;28;20053;-87
2021/11/12 02:17:06;;;;;;;10.70;7.78;;;;;;;9.19;100.00;100234.22;5032708;28;20110;-86
2021/11/12 02:19:35;;;;;;;12.15;8.18;;;;;;;9.10;100.00;100237.22;5032948;28;20041;-87
2021/11/12 02:22:14;;;;;;;9.63;7.20;;;;;;;9.04;100.00;100227.09;5033088;28;20042;-87
2021/11/12 02:24:48;;;;;;;16.08;8.00;;;;;;;9.01;100.00;100235.03;5032918;28;20480;-87
2021/11/12 02:27:18;;;;;;;9.98;8.00;;;;;;;8.96;100.00;100230.97;5033380;28;20103;-86
2021/11/12 02:29:54;;;;;;;11.57;7.85;;;;;;;8.85;100.00;100236.63;5032874;28;20046;-87
2021/11/12 02:32:27;;;;;;;11.43;6.95;;;;;;;8.75;100.00;100220.56;5033445;28;20034;-86
2021/11/12 02:34:58;;;;;;;11.35;8.38;;;;;;;8.73;100.00;100224.97;5033343;28;20133;-87
2021/11/12 02:37:29;;;;;;;12.95;7.22;;;;;;;8.83;100.00;100220.22;5033221;28;20132;-87
2021/11/12 02:39:57;;;;;;;18.35;8.57;;;;;;;8.84;100.00;100217.59;5033052;28;20049;-86
2021/11/12 02:42:24;;;;;;;9.70;7.25;;;;;;;8.84;100.00;100214.97;5033178;28;20115;-86
2021/11/12 02:44:52;;;;;;;13.20;8.20;;;;;;;8.78;100.00;100217.81;5035759;28;20045;-88
2021/11/12 02:47:20;;;;;;;10.15;7.05;;;;;;;8.77;100.00;100217.91;5036925;28;20045;-87
2021/11/12 02:49:47;;;;;;;14.13;7.28;;;;;;;8.76;100.00;100219.66;5036268;28;20113;-87
2021/11/12 02:52:19;;;;;;;10.10;7.72;;;;;;;8.83;100.00;100221.06;5036725;28;20515;-87
2021/11/12 02:54:47;;;;;;;14.25;8.48;;;;;;;8.85;100.00;100221.88;5036559;28;20052;-87
2021/11/12 02:57:16;;;;;;;11.02;7.03;;;;;;;8.89;100.00;100226.03;5036647;28;20053;-87
2021/11/12 02:59:42;;;;;;;10.50;7.03;;;;;;;8.91;100.00;100223.34;5036739;28;20092;-87
2021/11/12 03:02:10;;;;;;;9.73;6.93;;;;;;;8.95;100.00;100211.91;5036288;28;20078;-88
2021/11/12 03:04:37;;;;;;;13.15;7.65;;;;;;;8.98;100.00;100218.72;5035502;28;20061;-89
2021/11/12 03:07:04;;;;;;;12.15;7.72;;;;;;;8.96;100.00;100212.75;5037054;28;20033;-88
2021/11/12 03:09:33;;;;;;;12.48;7.82;;;;;;;9.02;100.00;100204.69;5036505;28;20041;-88
2021/11/12 03:12:02;;;;;;;12.30;7.60;;;;;;;9.10;100.00;100205.16;5036235;28;20463;-87
2021/11/12 03:14:30;;;;;;;10.68;6.57;;;;;;;9.10;100.00;100194.78;5036738;28;20049;-87
2021/11/12 03:16:57;;;;;;;16.20;8.27;;;;;;;9.02;100.00;100200.31;5035898;28;20041;-88
2021/11/12 03:19:26;;;;;;;9.77;7.00;;;;;;;8.90;100.00;100198.28;5036877;28;20038;-87
2021/11/12 03:21:59;;;;;;;12.25;7.15;;;;;;;8.93;100.00;100209.38;5036966;28;20091;-88
2021/11/12 03:24:34;;;;;;;10.20;8.38;;;;;;;8.86;100.00;100202.75;5036526;28;20050;-88
2021/11/12 04:03:17;;;;;;;9.50;7.82;;;;;;;8.81;100.00;100216.88;5033734;28;20111;-85
2021/11/12 04:20:19;;;;;;;13.02;7.40;;;;;;;8.73;100.00;100204.19;5040000;28;20080;-85
2021/11/12 05:45:21;;;;;;;20.40;11.63;;;;;;;8.56;100.00;100227.44;5032790;28;20120;-92
2021/11/12 05:55:44;;;;;;;17.27;11.75;;;;;;;8.33;100.00;100229.22;5029875;28;20412;-91
2021/11/12 05:58:11;;;;;;;20.25;12.45;;;;;;;8.34;100.00;100230.91;5030515;28;20092;-91
2021/11/12 06:00:38;;;;;;;21.20;12.02;;;;;;;8.27;100.00;100232.06;5031794;28;20442;-91
2021/11/12 06:03:04;;;;;;;17.63;11.73;;;;;;;8.34;100.00;100228.31;5034402;28;20093;-94
2021/11/12 06:05:32;;;;;;;24.40;12.13;;;;;;;8.31;100.00;100219.78;5023946;28;20041;-90
2021/11/12 06:07:59;;;;;;;19.98;13.23;;;;;;;8.30;100.00;100225.88;5030800;28;20084;-90
2021/11/12 06:10:27;;;;;;;20.27;11.52;;;;;;;8.30;100.00;100223.28;5027848;28;20464;-92
2021/11/12 06:12:54;;;;;;;17.45;12.00;;;;;;;8.27;100.00;100226.88;5028989;28;20077;-92
2021/11/12 06:15:22;;;;;;;20.30;12.07;;;;;;;8.40;100.00;100215.09;5032479;28;20148;-93
2021/11/12 06:17:49;;;;;;;15.30;11.68;;;;;;;8.47;100.00;100217.44;5028915;28;20046;-91
2021/11/12 06:20:16;;;;;;;22.00;10.82;;;;;;;8.49;100.00;100210.44;5033282;28;20041;-91
2021/11/12 06:22:43;;;;;;;16.50;11.27;;;;;;;8.50;100.00;100214.72;5031393;28;20057;-88
2021/11/12 06:25:11;;;;;;;18.98;11.30;;;;;;;8.57;100.00;100214.38;5030347;28;20519;-87
2021/11/12 06:27:38;;;;;;;17.35;10.88;;;;;;;8.70;100.00;100211.28;5030187;28;20041;-86
2021/11/12 06:30:07;;;;;;;20.17;12.35;;;;;;;8.72;100.00;100218.09;5029513;28;20045;-86
2021/11/12 06:32:34;;;;;;;21.05;12.82;;;;;;;8.79;100.00;100216.06;5028754;28;20116;-90
2021/11/12 06:35:01;;;;;;;19.70;11.02;;;;;;;8.79;100.00;100219.53;5031450;28;20042;-92
2021/11/12 06:37:28;;;;;;;18.00;11.95;;;;;;;8.72;100.00;100217.25;5032963;28;20439;-93
2021/11/12 06:39:55;;;;;;;17.02;11.25;;;;;;;8.88;100.00;100213.91;5023221;28;20358;-91
2021/11/12 06:42:25;;;;;;;24.85;11.68;;;;;;;8.98;100.00;100214.38;5030622;28;20400;-94
2021/11/12 06:50:18;;;;;;;19.05;13.95;;;;;;;9.15;100.00;100234.41;5032816;28;20041;-92
2021/11/12 06:52:47;;;;;;;24.25;13.27;;;;;;;9.28;100.00;100240.78;5028558;28;20042;-88
2021/11/12 06:55:15;;;;;;;22.15;12.70;;;;;;;9.20;100.00;100237.66;5042917;28;20076;-93
2021/11/12 06:57:44;;;;;;;20.38;12.40;;;;;;;9.26;100.00;100231.34;5039074;28;20053;-85
2021/11/12 07:00:18;;;;;;;22.55;12.82;;;;;;;9.36;100.00;100225.66;5026467;28;20446;-90
2021/11/12 07:02:46;;;;;;;19.83;11.82;;;;;;;9.43;100.00;100219.28;5029706;28;20453;-93
2021/11/12 07:05:15;;;;;;;15.63;11.55;;;;;;;9.43;100.00;100219.28;5027695;28;20045;-88
2021/11/12 07:07:43;;;;;;;23.27;12.65;;;;;;;9.51;100.00;100218.06;5021410;28;20060;-87
2021/11/12 07:10:10;;;;;;;16.60;11.15;;;;;;;9.48;100.00;100223.41;5024207;28;20116;-79
2021/11/12 07:12:38;;;;;;;21.92;12.88;;;;;;;9.45;100.00;100225.25;5011729;28;20095;-79
2021/11/12 07:15:06;;;;;;;20.17;12.52;;;;;;;9.49;100.00;100235.53;5024644;28;20091;-85
2021/11/12 07:17:33;;;;;;;22.95;13.48;;;;;;;9.46;100.00;100231.28;5025628;28;20042;-83
2021/11/12 07:20:00;;;;;;;20.45;12.32;;;;;;;9.61;100.00;100234.97;5025530;28;20091;-86
2021/11/12 07:22:27;;;;;;;22.70;12.77;;;;;;;9.71;100.00;100247.47;5023860;28;20049;-84
2021/11/12 07:24:55;;;;;;;25.50;13.52;;;;;;;9.88;100.00;100245.84;5022273;28;20044;-86
2021/11/12 07:27:22;;;;;;;24.38;13.77;;;;;;;10.02;100.00;100242.59;5023798;28;20065;-81
2021/11/12 07:30:13;;;;;;;23.73;14.02;;;;;;;9.85;100.00;100259.00;5022441;28;20060;-86
2021/11/12 07:32:43;;;;;;;22.30;12.98;;;;;;;10.05;100.00;100256.28;5030518;28;20049;-82
2021/11/12 07:35:12;;;;;;;22.45;13.38;;;;;;;10.06;100.00;100264.94;5031701;28;20080;-84
2021/11/12 07:37:39;;;;;;;18.63;13.25;;;;;;;10.03;100.00;100268.56;5025583;28;20488;-81
2021/11/12 07:40:09;;;;;;;21.27;13.30;;;;;;;10.03;100.00;100260.75;5020885;28;20099;-85
2021/11/12 07:45:54;;;;;;;22.40;14.00;;;;;;;10.18;100.00;100261.78;5009748;28;20132;-84
2021/11/12 07:48:10;;;;;;;24.70;15.07;;;;;;;10.32;100.00;100269.78;5029249;28;20037;-85
2021/11/12 07:50:38;;;;;;;24.13;13.20;;;;;;;10.41;100.00;100273.72;5030681;28;20095;-83
2021/11/12 07:53:07;;;;;;;20.45;14.90;;;;;;;10.62;100.00;100269.22;5032730;28;20041;-83
2021/11/12 07:55:34;;;;;;;24.50;15.77;;;;;;;10.55;100.00;100260.88;5031990;28;20072;-86
2021/11/12 07:58:01;;;;;;;24.15;15.35;;;;;;;10.55;100.00;100267.84;5031195;28;20113;-83
2021/11/12 08:00:28;;;;;;;21.50;13.00;;;;;;;10.76;100.00;100269.38;5028607;28;20045;-85
2021/11/12 08:02:55;;;;;;;24.98;14.88;;;;;;;10.78;100.00;100270.13;5030715;28;20045;-83
2021/11/12 08:05:26;;;;;;;31.42;20.73;;;;;;;10.88;100.00;100265.31;5032381;28;20041;-87
2021/11/12 08:07:58;;;;;;;48.15;29.65;;;;;;;10.98;100.00;100259.53;5030876;28;20050;-84
2021/11/12 08:10:29;;;;;;;51.35;31.10;;;;;;;11.03;100.00;100272.34;5027732;28;20049;-86
2021/11/12 08:13:04;;;;;;;49.15;30.15;;;;;;;11.39;100.00;100279.16;5028842;28;20045;-84
2021/11/12 08:15:44;;;;;;;41.00;29.10;;;;;;;11.45;100.00;100268.38;5031656;28;20041;-84
2021/11/12 08:18:25;;;;;;;42.45;26.95;;;;;;;11.51;100.00;100274.16;5027648;28;20052;-85
2021/11/12 08:21:00;;;;;;;42.92;28.13;;;;;;;11.58;100.00;100266.00;5026105;28;20128;-84
2021/11/12 08:26:15;;;;;;;39.17;23.60;;;;;;;11.52;100.00;100273.22;5021155;28;20038;-85
2021/11/12 08:37:25;;;;;;;43.70;25.13;;;;;;;11.87;100.00;100280.09;5001952;28;20468;-86
2021/11/12 08:40:38;;;;;;;42.28;26.27;;;;;;;11.99;100.00;100279.44;5029172;28;20041;-90
2021/11/12 08:42:52;;;;;;;42.25;23.52;;;;;;;11.82;100.00;100277.72;5016051;28;20134;-87
2021/11/12 08:46:22;;;;;;;39.08;25.83;;;;;;;11.84;100.00;100281.13;5024519;28;20408;-84
2021/11/12 08:48:36;;;;;;;48.13;27.05;;;;;;;11.92;100.00;100284.13;5022073;28;20054;-84
2021/11/12 08:51:07;;;;;;;44.80;25.23;;;;;;;11.96;100.00;100285.66;5025183;28;20062;-83
2021/11/12 08:53:34;;;;;;;37.83;25.75;;;;;;;12.03;100.00;100296.59;5031263;28;20052;-83
2021/11/12 08:56:01;;;;;;;44.25;25.75;;;;;;;12.12;100.00;100290.03;5030529;28;20091;-85
2021/11/12 08:58:27;;;;;;;39.03;25.88;;;;;;;12.15;100.00;100290.72;5029062;28;20080;-84
2021/11/12 09:00:54;;;;;;;37.47;21.75;;;;;;;12.22;100.00;100299.06;5027810;28;20042;-81
2021/11/12 09:03:22;;;;;;;34.75;21.92;;;;;;;12.27;100.00;100299.66;5030874;28;20045;-80
2021/11/12 09:05:49;;;;;;;37.88;22.00;;;;;;;12.00;100.00;100294.19;5021653;28;20030;-79
2021/11/12 09:08:15;;;;;;;32.33;21.60;;;;;;;12.05;100.00;100294.78;5015755;28;20377;-81
2021/11/12 09:10:42;;;;;;;33.33;21.10;;;;;;;12.01;100.00;100290.63;5016978;28;20068;-83
2021/11/12 09:13:22;;;;;;;36.25;22.45;;;;;;;12.05;100.00;100290.38;5014037;28;20455;-85
2021/11/12 09:15:52;;;;;;;40.15;23.50;;;;;;;12.07;100.00;100285.06;5016342;28;20045;-82
2021/11/12 09:18:22;;;;;;;38.55;21.95;;;;;;;12.11;100.00;100290.97;5015096;28;20060;-84
2021/11/12 09:20:51;;;;;;;34.15;21.50;;;;;;;12.19;100.00;100280.91;5016877;28;20040;-86
2021/11/12 09:23:18;;;;;;;35.33;23.30;;;;;;;11.86;100.00;100287.09;5018862;28;20145;-86
2021/11/12 09:25:45;;;;;;;36.28;22.75;;;;;;;12.14;100.00;100294.25;5014267;28;20144;-85
2021/11/12 09:28:14;;;;;;;45.53;24.50;;;;;;;12.20;99.14;100286.09;5013218;28;20464;-84
2021/11/12 09:30:41;;;;;;;47.00;23.90;;;;;;;12.39;98.17;100278.03;5013818;28;20042;-84
2021/11/12 09:33:08;;;;;;;37.45;23.67;;;;;;;11.95;100.00;100291.81;5017680;28;20057;-84
2021/11/12 09:35:35;;;;;;;35.45;23.80;;;;;;;11.93;100.00;100291.06;5018413;28;20041;-81
2021/11/12 09:38:02;;;;;;;45.63;26.88;;;;;;;12.01;100.00;100282.81;5013351;28;20049;-84
2021/11/12 09:40:32;;;;;;;44.30;30.17;;;;;;;12.09;100.00;100280.63;5026905;28;20081;-84
2021/11/12 09:42:58;;;;;;;45.22;28.25;;;;;;;12.50;99.00;100280.03;5026900;28;20050;-81
2021/11/12 09:45:26;;;;;;;36.97;24.95;;;;;;;12.28;99.75;100286.47;5029166;28;20072;-82
2021/11/12 09:47:57;;;;;;;40.90;27.30;;;;;;;12.85;97.03;100291.06;5030025;28;20473;-86
2021/11/12 09:50:29;;;;;;;38.10;25.92;;;;;;;13.20;94.44;100286.34;5030634;28;20033;-83
2021/11/12 09:52:59;;;;;;;39.20;25.17;;;;;;;12.74;96.31;100294.31;5030680;28;20044;-85
2021/11/12 09:55:28;;;;;;;47.70;27.60;;;;;;;12.95;94.90;100288.75;5028647;28;20054;-81
2021/11/12 09:57:55;;;;;;;40.75;24.67;;;;;;;13.13;95.40;100285.03;5030871;28;20095;-82
2021/11/12 10:00:26;;;;;;;38.17;24.88;;;;;;;13.19;95.08;100278.59;5025780;28;20049;-82
2021/11/12 10:02:57;;;;;;;41.42;26.67;;;;;;;13.25;95.79;100268.63;5032262;28;20033;-81
2021/11/12 10:05:46;;;;;;;47.05;25.30;;;;;;;13.67;92.82;100273.94;5031924;28;20093;-82
2021/11/12 10:08:45;;;;;;;35.47;23.52;;;;;;;13.10;96.17;100277.38;5031789;28;20457;-82
2021/11/12 10:11:24;;;;;;;41.17;27.58;;;;;;;13.38;95.90;100273.97;4999366;28;20061;-81
2021/11/12 10:14:02;;;;;;;42.90;27.27;;;;;;;13.81;92.19;100266.06;5031416;28;20034;-82
2021/11/12 10:16:36;;;;;;;45.55;28.98;;;;;;;14.13;90.48;100257.00;5031374;28;20052;-84
2021/11/12 10:19:18;;;;;;;41.72;28.42;;;;;;;14.26;89.21;100256.19;5032053;28;20139;-85
2021/11/12 10:21:58;;;;;;;46.10;29.55;;;;;;;14.29;88.91;100256.00;5025330;28;20045;-84
2021/11/12 10:24:33;;;;;;;41.42;27.02;;;;;;;14.44;88.33;100239.25;5030468;28;20045;-87
2021/11/12 10:27:10;;;;;;;45.30;29.55;;;;;;;14.29;87.49;100237.66;5029145;28;20076;-84
2021/11/12 10:29:51;;;;;;;46.88;29.98;;;;;;;14.26;87.98;100235.22;5028551;28;20087;-81
2021/11/12 10:32:20;;;;;;;77.82;34.78;;;;;;;14.13;91.45;100233.41;5029656;28;20045;-81
2021/11/12 10:34:50;;;;;;;41.58;32.13;;;;;;;14.57;87.15;100237.53;5029867;28;20631;-83
2021/11/12 10:37:23;;;;;;;46.60;29.85;;;;;;;14.51;87.91;100240.56;5030701;28;20411;-83
2021/11/12 10:40:04;;;;;;;43.95;30.35;;;;;;;14.58;87.35;100240.97;5025924;28;20049;-81
2021/11/12 10:42:34;;;;;;;41.72;27.55;;;;;;;14.70;86.47;100234.94;5030493;28;20406;-83
2021/11/12 10:45:06;;;;;;;45.92;28.20;;;;;;;14.57;87.72;100241.94;5030774;28;20038;-84
2021/11/12 10:47:34;;;;;;;48.20;27.52;;;;;;;14.52;87.04;100247.47;5029792;28;20046;-81
2021/11/12 10:50:09;;;;;;;41.47;28.35;;;;;;;14.88;87.57;100244.19;5030087;28;20091;-82
2021/11/12 10:52:38;;;;;;;55.15;27.63;;;;;;;14.68;85.92;100227.16;5029708;28;20045;-82
2021/11/12 10:55:12;;;;;;;47.30;29.52;;;;;;;14.62;87.28;100231.97;5030335;28;20385;-79
2021/11/12 10:57:45;;;;;;;44.30;29.77;;;;;;;14.57;88.63;100227.03;5025200;28;20384;-81
2021/11/12 11:00:13;;;;;;;47.20;32.40;;;;;;;15.03;86.55;100225.72;5030217;28;20041;-80
2021/11/12 11:02:52;;;;;;;45.85;31.50;;;;;;;14.94;85.21;100222.75;5027709;28;20104;-82
2021/11/12 11:05:34;;;;;;;51.70;28.95;;;;;;;15.08;83.95;100213.94;5032459;28;20115;-79
2021/11/12 11:08:05;;;;;;;42.58;26.17;;;;;;;15.33;82.58;100217.47;5031157;28;20045;-82
2021/11/12 11:10:38;;;;;;;43.35;26.77;;;;;;;15.04;83.62;100207.22;5028699;28;20049;-80
2021/11/12 11:13:14;;;;;;;41.85;25.52;;;;;;;15.01;82.52;100206.59;5034410;28;20053;-80
2021/11/12 11:15:50;;;;;;;50.30;27.75;;;;;;;15.06;83.70;100205.31;5034540;28;20045;-82
2021/11/12 11:18:25;;;;;;;50.45;26.25;;;;;;;15.06;84.05;100199.22;5033868;28;20454;-80
2021/11/12 11:23:59;;;;;;;41.78;26.10;;;;;;;15.03;81.13;100200.31;5016488;28;20056;-83
2021/11/12 11:26:39;;;;;;;45.92;25.77;;;;;;;14.91;83.52;100195.88;5033068;28;20045;-80
2021/11/12 11:29:10;;;;;;;43.33;26.25;;;;;;;14.89;82.87;100197.78;5030190;28;20054;-80
2021/11/12 11:31:38;;;;;;;45.63;25.17;;;;;;;15.04;83.45;100186.22;5030802;28;20096;-81
2021/11/12 11:34:06;;;;;;;53.85;23.65;;;;;;;14.75;83.17;100176.88;5032752;28;20088;-81
2021/11/12 11:36:36;;;;;;;37.60;25.55;;;;;;;14.52;84.88;100179.28;5030941;28;20060;-81
2021/11/12 11:39:06;;;;;;;40.92;26.15;;;;;;;14.43;85.84;100169.38;5032101;28;20046;-80
2021/11/12 11:41:33;;;;;;;49.92;29.40;;;;;;;14.33;87.91;100166.56;5033780;28;20041;-81
2021/11/12 11:44:02;;;;;;;40.40;27.45;;;;;;;14.65;87.33;100172.28;5029855;28;20033;-81
2021/11/12 11:46:35;;;;;;;43.55;29.05;;;;;;;14.66;86.18;100166.09;5032322;28;20041;-81
2021/11/12 11:49:11;;;;;;;45.80;31.05;;;;;;;14.84;85.34;100163.13;5033117;28;20488;-83
2021/11/12 11:51:53;;;;;;;49.92;30.30;;;;;;;14.50;85.99;100162.00;5033036;28;20050;-79
2021/11/12 11:54:22;;;;;;;40.20;26.50;;;;;;;14.72;84.30;100164.00;5031587;28;20042;-81
2021/11/12 11:56:52;;;;;;;42.10;25.65;;;;;;;14.81;81.27;100164.19;5023300;28;20282;-81
2021/11/12 11:59:32;;;;;;;37.38;27.13;;;;;;;14.65;82.93;100169.66;5033209;28;20046;-81
2021/11/12 12:02:17;;;;;;;39.70;24.80;;;;;;;14.79;81.96;100160.00;5028225;28;20072;-80
2021/11/12 12:04:57;;;;;;;44.10;26.67;;;;;;;15.10;82.19;100158.69;5031231;28;20049;-80
2021/11/12 12:07:25;;;;;;;41.05;27.00;;;;;;;14.99;80.57;100156.00;5031791;28;20491;-80
2021/11/12 12:09:54;;;;;;;32.83;22.73;;;;;;;14.93;81.27;100152.84;5028401;28;20137;-85
2021/11/12 12:12:27;;;;;;;43.00;22.48;;;;;;;15.10;81.05;100156.06;5033388;28;20038;-82
2021/11/12 12:14:55;;;;;;;31.17;23.40;;;;;;;14.77;81.60;100161.88;5028591;28;20101;-82
2021/11/12 12:17:26;;;;;;;43.38;22.48;;;;;;;14.70;82.65;100165.84;5033347;28;20041;-84
2021/11/12 13:23:08;;;;;;;29.90;21.00;;;;;;;14.44;81.04;100131.75;5041636;28;20049;-80
2021/11/12 13:25:37;;;;;;;28.80;19.65;;;;;;;14.47;82.05;100122.81;5041971;28;20041;-80
2021/11/12 13:28:23;;;;;;;26.38;17.25;;;;;;;14.39;81.99;100136.44;5043845;28;20056;-80
2021/11/12 13:31:15;;;;;;;22.95;15.82;;;;;;;14.35;80.45;100129.72;5036736;28;20045;-81
2021/11/12 13:33:53;;;;;;;26.60;16.88;;;;;;;14.48;80.54;100130.59;5029631;28;20043;-81
2021/11/12 13:36:28;;;;;;;22.25;15.65;;;;;;;14.48;80.62;100130.59;5027925;28;20166;-79
2021/11/12 13:39:01;;;;;;;25.98;16.73;;;;;;;14.45;80.68;100125.53;5025950;28;20464;-80
2021/11/12 13:41:33;;;;;;;27.98;18.95;;;;;;;14.52;80.35;100123.38;5027084;28;20369;-81
2021/11/12 13:44:04;;;;;;;31.05;17.38;;;;;;;14.53;80.43;100127.66;5027625;28;20046;-79
2021/11/12 13:46:49;;;;;;;25.67;17.20;;;;;;;14.44;79.88;100121.25;5021551;28;20132;-79
2021/11/12 13:49:27;;;;;;;29.25;17.98;;;;;;;14.59;81.04;100122.00;5030157;28;20081;-78
2021/11/12 13:52:00;;;;;;;29.45;18.45;;;;;;;14.56;79.70;100120.44;5025378;28;20063;-78
2021/11/12 13:54:29;;;;;;;27.02;18.55;;;;;;;14.45;80.13;100117.66;5029768;28;20048;-77
2021/11/12 13:56:56;;;;;;;27.05;16.95;;;;;;;14.46;80.25;100116.72;5027725;28;20100;-78
2021/11/12 13:59:23;;;;;;;30.95;17.17;;;;;;;14.48;80.45;100124.50;5029424;28;20190;-79
2021/11/12 14:02:01;;;;;;;29.33;18.23;;;;;;;14.45;80.14;100116.84;5029817;28;20119;-79
2021/11/12 14:04:31;;;;;;;27.88;17.80;;;;;;;14.47;80.64;100113.19;5029828;28;20479;-78
2021/11/12 14:06:58;;;;;;;26.58;18.75;;;;;;;14.51;80.39;100122.53;5031734;28;20045;-78
2021/11/12 14:09:33;;;;;;;26.63;17.08;;;;;;;14.43;79.89;100130.03;5027982;28;20037;-79
2021/11/12 14:12:04;;;;;;;27.33;17.92;;;;;;;14.45;80.49;100124.72;5024663;28;20049;-78
2021/11/12 14:14:33;;;;;;;28.02;18.58;;;;;;;14.48;80.14;100125.34;5030187;28;20037;-79
2021/11/12 14:17:16;;;;;;;27.98;18.65;;;;;;;14.50;79.81;100123.47;5030021;28;20041;-78
2021/11/12 14:19:58;;;;;;;25.03;17.60;;;;;;;14.45;79.90;100125.53;5029722;28;20048;-79
2021/11/12 14:23:10;;;;;;;27.25;16.10;;;;;;;14.34;79.55;100126.28;5030156;28;20041;-78
2021/11/12 14:28:09;;;;;;;22.80;16.17;;;;;;;14.28;79.84;100123.22;5031671;28;20045;-77
2021/11/12 14:30:59;;;;;;;27.90;18.25;;;;;;;14.25;80.98;100120.78;5031805;28;20061;-78
2021/11/12 14:39:00;;;;;;;27.58;21.88;;;;;;;14.05;81.11;100117.72;5034457;28;20049;-76
2021/11/12 14:41:37;;;;;;;27.75;18.67;;;;;;;13.96;82.19;100105.25;5031047;28;20045;-79
2021/11/12 14:47:13;;;;;;;39.85;19.27;;;;;;;13.92;84.00;100106.38;5033011;28;20049;-79
2021/11/12 14:49:48;;;;;;;30.77;18.15;;;;;;;13.83;84.31;100106.97;5038564;28;20491;-78
2021/11/12 14:52:17;;;;;;;34.72;18.60;;;;;;;13.77;84.24;100102.16;5038233;28;20044;-79
2021/11/12 14:54:54;;;;;;;28.88;18.13;;;;;;;13.72;85.57;100097.19;5037362;28;20080;-80
2021/11/12 14:59:55;;;;;;;23.83;16.38;;;;;;;13.58;87.56;100105.97;5029484;28;20060;-78
2021/11/12 15:02:22;;;;;;;24.48;15.68;;;;;;;13.52;88.11;100103.72;5038124;28;20404;-77
2021/11/12 15:04:49;;;;;;;28.15;17.55;;;;;;;13.51;88.87;100096.81;5037918;28;20046;-77
2021/11/12 15:07:21;;;;;;;33.78;19.13;;;;;;;13.47;89.26;100097.94;5037451;28;20157;-76
2021/11/12 15:09:50;;;;;;;28.95;18.10;;;;;;;13.40;90.36;100099.28;5035441;28;20041;-76
2021/11/12 15:12:20;;;;;;;27.55;17.88;;;;;;;13.28;92.04;100105.31;5037925;28;20452;-77
2021/11/12 15:14:53;;;;;;;21.38;15.38;;;;;;;13.17;93.42;100098.09;5037844;28;20076;-78
2021/11/12 15:17:21;;;;;;;28.40;15.93;;;;;;;13.11;93.85;100094.09;5038000;28;20151;-78
2021/11/12 15:19:48;;;;;;;27.70;16.08;;;;;;;13.06;94.17;100100.56;5037087;28;20045;-79
2021/11/12 15:30:08;;;;;;;19.35;13.73;;;;;;;12.78;97.18;100117.09;5036963;28;20104;-79
2021/11/12 15:32:40;;;;;;;24.08;15.52;;;;;;;12.66;97.51;100115.22;5023787;28;20125;-80
2021/11/12 15:35:12;;;;;;;28.40;15.45;;;;;;;12.48;98.43;100122.41;5027733;28;20140;-81
2021/11/12 15:37:48;;;;;;;28.67;14.55;;;;;;;12.54;97.90;100115.03;5021162;28;20095;-79
2021/11/12 15:48:24;;;;;;;29.83;14.75;;;;;;;12.32;99.12;100125.09;5035089;28;20049;-80
2021/11/12 15:53:49;;;;;;;23.88;15.48;;;;;;;12.16;100.00;100119.09;5020364;28;20068;-80
2021/11/12 16:25:20;;;;;;;45.03;20.60;;;;;;;11.47;100.00;100125.59;5020593;28;20074;-80
2021/11/12 16:27:50;;;;;;;32.70;18.75;;;;;;;11.41;100.00;100128.56;5029783;28;20049;-79
2021/11/12 16:30:21;;;;;;;37.25;21.58;;;;;;;11.39;100.00;100128.63;5020554;28;20377;-79
2021/11/12 16:32:56;;;;;;;31.60;18.55;;;;;;;11.35;100.00;100124.53;5016977;28;20117;-79
2021/11/12 16:35:25;;;;;;;;;;;;;;;11.35;100.00;100136.72;5017120;28;20124;-78
2021/11/12 16:37:57;;;;;;;37.67;21.35;;;;;;;11.32;100.00;100132.50;5020266;28;19975;-79
2021/11/12 16:40:34;;;;;;;34.22;20.40;;;;;;;11.22;100.00;100136.53;5016514;28;20042;-79
2021/11/12 16:43:10;;;;;;;35.38;21.17;;;;;;;11.09;100.00;100140.75;5015749;28;20481;-79
2021/11/12 16:51:02;;;;;;;36.40;20.65;;;;;;;11.14;100.00;100149.19;5019318;28;20101;-80
2021/11/12 16:58:57;;;;;;;31.17;22.02;;;;;;;11.12;100.00;100151.00;5024541;28;20049;-80
2021/11/12 17:06:38;;;;;;;35.17;21.50;;;;;;;11.10;100.00;100151.09;5018425;28;20042;-81
2021/11/12 17:46:55;;;;;;;37.67;22.10;;;;;;;10.75;100.00;100179.03;5030619;28;20095;-79
2021/11/12 18:05:24;;;;;;;32.50;20.20;;;;;;;10.59;100.00;100173.75;5025810;28;20050;-86